SHT2T EGNT-EGLL
Flight info
| Callsign | SHT2T |
|---|---|
| Flight time | 0h 45m |
| Altitude | 27000 |
| Route | GIRLI P18 GASKO P16 RIBEL UP16 CROFT DCT NUGRA |
| Aircraft | A319/M-SDE3FGHIRWY/LB1 |
Departure
| Time | 2026-05-05 13:47 |
|---|---|
| Airport | Newcastle International Airport (EGNT) |
Arrival
| Time | 2026-05-05 14:32 |
|---|---|
| Airport | London Heathrow Airport (EGLL) |
| Time | Latitude | Longitude | Altitude | Speed | Heading |
|---|---|---|---|---|---|
| 2026-05-05 13:21 | 55.03669 | -1.70845 | 268 ft | 0 kts | 5° |
| 2026-05-05 13:39 | 55.03661 | -1.70846 | 267 ft | 4 kts | 5° |
| 2026-05-05 13:39 | 55.03634 | -1.70851 | 267 ft | 4 kts | 5° |
| 2026-05-05 13:40 | 55.03607 | -1.70855 | 267 ft | 4 kts | 5° |
| 2026-05-05 13:40 | 55.03582 | -1.70860 | 267 ft | 1 kts | 5° |
| 2026-05-05 13:40 | 55.03581 | -1.70860 | 267 ft | 0 kts | 5° |
| 2026-05-05 13:43 | 55.03586 | -1.70859 | 267 ft | 2 kts | 5° |
| 2026-05-05 13:43 | 55.03598 | -1.70838 | 267 ft | 3 kts | 63° |
| 2026-05-05 13:44 | 55.03598 | -1.70780 | 267 ft | 6 kts | 91° |
| 2026-05-05 13:44 | 55.03595 | -1.70690 | 267 ft | 9 kts | 97° |
| 2026-05-05 13:44 | 55.03540 | -1.70642 | 267 ft | 11 kts | 182° |
| 2026-05-05 13:44 | 55.03505 | -1.70642 | 267 ft | 2 kts | 181° |
| 2026-05-05 13:45 | 55.03485 | -1.70643 | 267 ft | 4 kts | 181° |
| 2026-05-05 13:45 | 55.03453 | -1.70644 | 268 ft | 6 kts | 181° |
| 2026-05-05 13:45 | 55.03407 | -1.70645 | 268 ft | 7 kts | 179° |
| 2026-05-05 13:45 | 55.03367 | -1.70593 | 268 ft | 9 kts | 92° |
| 2026-05-05 13:46 | 55.03401 | -1.70455 | 267 ft | 23 kts | 65° |
| 2026-05-05 13:46 | 55.03563 | -1.69840 | 261 ft | 88 kts | 65° |
| 2026-05-05 13:46 | 55.03910 | -1.68547 | 254 ft | 147 kts | 64° |
| 2026-05-05 13:46 | 55.04368 | -1.66892 | 795 ft | 150 kts | 64° |
| 2026-05-05 13:47 | 55.04802 | -1.65236 | 1478 ft | 151 kts | 64° |
| 2026-05-05 13:47 | 55.05262 | -1.63461 | 1878 ft | 171 kts | 64° |
| 2026-05-05 13:47 | 55.05785 | -1.61463 | 2257 ft | 191 kts | 64° |
| 2026-05-05 13:47 | 55.06361 | -1.59225 | 2660 ft | 212 kts | 65° |
| 2026-05-05 13:48 | 55.06604 | -1.56665 | 3367 ft | 220 kts | 98° |
| 2026-05-05 13:48 | 55.05899 | -1.54291 | 4196 ft | 228 kts | 134° |
| 2026-05-05 13:48 | 55.04463 | -1.52903 | 4666 ft | 254 kts | 168° |
| 2026-05-05 13:48 | 55.02638 | -1.52612 | 5327 ft | 270 kts | 179° |
| 2026-05-05 13:49 | 55.00735 | -1.52646 | 6210 ft | 278 kts | 182° |
| 2026-05-05 13:49 | 54.98805 | -1.52877 | 7218 ft | 279 kts | 190° |
| 2026-05-05 13:49 | 54.96928 | -1.53907 | 8156 ft | 281 kts | 206° |
| 2026-05-05 13:49 | 54.95225 | -1.55594 | 9066 ft | 284 kts | 214° |
| 2026-05-05 13:50 | 54.93541 | -1.57417 | 9940 ft | 287 kts | 212° |
| 2026-05-05 13:50 | 54.91785 | -1.59241 | 10485 ft | 305 kts | 212° |
| 2026-05-05 13:50 | 54.89886 | -1.61182 | 10769 ft | 328 kts | 211° |
| 2026-05-05 13:50 | 54.87861 | -1.63236 | 11234 ft | 342 kts | 211° |
| 2026-05-05 13:51 | 54.85796 | -1.65333 | 11932 ft | 347 kts | 211° |
| 2026-05-05 13:51 | 54.83703 | -1.67465 | 12658 ft | 350 kts | 212° |
| 2026-05-05 13:51 | 54.81607 | -1.69609 | 13378 ft | 354 kts | 212° |
| 2026-05-05 13:51 | 54.79460 | -1.71803 | 14078 ft | 357 kts | 212° |
| 2026-05-05 13:52 | 54.77310 | -1.73995 | 14763 ft | 360 kts | 212° |
| 2026-05-05 13:52 | 54.75148 | -1.76202 | 15428 ft | 363 kts | 212° |
| 2026-05-05 13:52 | 54.72956 | -1.78431 | 16079 ft | 366 kts | 211° |
| 2026-05-05 13:52 | 54.71405 | -1.79733 | 16503 ft | 369 kts | 203° |
| 2026-05-05 13:53 | 54.68930 | -1.81029 | 17136 ft | 374 kts | 193° |
| 2026-05-05 13:53 | 54.66363 | -1.81838 | 17766 ft | 377 kts | 192° |
| 2026-05-05 13:53 | 54.63765 | -1.82649 | 18386 ft | 380 kts | 192° |
| 2026-05-05 13:53 | 54.61155 | -1.83466 | 18994 ft | 383 kts | 192° |
| 2026-05-05 13:54 | 54.58518 | -1.84293 | 19585 ft | 387 kts | 192° |
| 2026-05-05 13:54 | 54.55863 | -1.85128 | 20159 ft | 390 kts | 192° |
| 2026-05-05 13:54 | 54.53183 | -1.85971 | 20719 ft | 393 kts | 192° |
| 2026-05-05 13:54 | 54.50476 | -1.86826 | 21264 ft | 396 kts | 192° |
| 2026-05-05 13:55 | 54.47756 | -1.87686 | 21772 ft | 400 kts | 192° |
| 2026-05-05 13:55 | 54.45008 | -1.88555 | 22258 ft | 403 kts | 192° |
| 2026-05-05 13:55 | 54.42251 | -1.89424 | 22727 ft | 406 kts | 192° |
| 2026-05-05 13:55 | 54.39466 | -1.90300 | 23198 ft | 408 kts | 192° |
| 2026-05-05 13:56 | 54.36664 | -1.91177 | 23645 ft | 411 kts | 191° |
| 2026-05-05 13:56 | 54.33842 | -1.92055 | 24092 ft | 414 kts | 191° |
| 2026-05-05 13:56 | 54.30998 | -1.92939 | 24523 ft | 416 kts | 191° |
| 2026-05-05 13:56 | 54.28135 | -1.93826 | 24940 ft | 419 kts | 191° |
| 2026-05-05 13:57 | 54.25291 | -1.94949 | 25334 ft | 421 kts | 199° |
| 2026-05-05 13:57 | 54.22586 | -1.96872 | 25734 ft | 422 kts | 209° |
| 2026-05-05 13:57 | 54.20116 | -1.99573 | 26133 ft | 423 kts | 218° |
| 2026-05-05 13:57 | 54.17910 | -2.02920 | 26530 ft | 425 kts | 224° |
| 2026-05-05 13:58 | 54.15755 | -2.06404 | 26902 ft | 428 kts | 224° |
| 2026-05-05 13:58 | 54.13589 | -2.09889 | 27022 ft | 427 kts | 224° |
| 2026-05-05 13:58 | 54.11433 | -2.13334 | 27046 ft | 424 kts | 224° |
| 2026-05-05 13:58 | 54.09285 | -2.16753 | 27044 ft | 423 kts | 224° |
| 2026-05-05 13:59 | 54.04991 | -2.23575 | 27045 ft | 422 kts | 224° |
| 2026-05-05 13:59 | 54.02781 | -2.26873 | 27037 ft | 422 kts | 218° |
| 2026-05-05 14:00 | 53.97611 | -2.31562 | 27036 ft | 424 kts | 201° |
| 2026-05-05 14:00 | 53.94845 | -2.33342 | 27035 ft | 424 kts | 201° |
| 2026-05-05 14:00 | 53.92091 | -2.35115 | 27033 ft | 424 kts | 201° |
| 2026-05-05 14:00 | 53.89334 | -2.36888 | 27032 ft | 424 kts | 201° |
| 2026-05-05 14:01 | 53.86577 | -2.38660 | 27032 ft | 424 kts | 201° |
| 2026-05-05 14:01 | 53.83820 | -2.40427 | 27030 ft | 424 kts | 201° |
| 2026-05-05 14:01 | 53.81058 | -2.42196 | 27027 ft | 423 kts | 201° |
| 2026-05-05 14:01 | 53.78272 | -2.43977 | 27023 ft | 423 kts | 201° |
| 2026-05-05 14:02 | 53.75549 | -2.45719 | 27021 ft | 424 kts | 201° |
| 2026-05-05 14:02 | 53.72790 | -2.47478 | 27022 ft | 424 kts | 201° |
| 2026-05-05 14:02 | 53.70029 | -2.49238 | 27024 ft | 424 kts | 201° |
| 2026-05-05 14:02 | 53.67268 | -2.50988 | 27025 ft | 424 kts | 200° |
| 2026-05-05 14:03 | 53.64418 | -2.52244 | 27025 ft | 425 kts | 190° |
| 2026-05-05 14:03 | 53.61476 | -2.52666 | 27026 ft | 426 kts | 180° |
| 2026-05-05 14:03 | 53.58520 | -2.52215 | 27026 ft | 427 kts | 170° |
| 2026-05-05 14:03 | 53.55624 | -2.51086 | 27024 ft | 427 kts | 167° |
| 2026-05-05 14:04 | 53.52738 | -2.49916 | 27023 ft | 427 kts | 167° |
| 2026-05-05 14:04 | 53.49840 | -2.48752 | 27021 ft | 427 kts | 168° |
| 2026-05-05 14:04 | 53.46952 | -2.47602 | 27021 ft | 427 kts | 168° |
| 2026-05-05 14:04 | 53.44065 | -2.46457 | 27021 ft | 427 kts | 168° |
| 2026-05-05 14:05 | 53.41135 | -2.45299 | 27022 ft | 427 kts | 168° |
| 2026-05-05 14:05 | 53.38288 | -2.44177 | 27023 ft | 427 kts | 168° |
| 2026-05-05 14:05 | 53.35347 | -2.43051 | 27016 ft | 428 kts | 168° |
| 2026-05-05 14:05 | 53.32484 | -2.41936 | 27020 ft | 428 kts | 168° |
| 2026-05-05 14:06 | 53.29555 | -2.40788 | 27022 ft | 428 kts | 168° |
| 2026-05-05 14:06 | 53.26653 | -2.39648 | 27026 ft | 427 kts | 168° |
| 2026-05-05 14:06 | 53.23761 | -2.38511 | 27029 ft | 427 kts | 168° |
| 2026-05-05 14:06 | 53.20879 | -2.37377 | 27031 ft | 427 kts | 168° |
| 2026-05-05 14:07 | 53.17981 | -2.36237 | 27032 ft | 427 kts | 168° |
| 2026-05-05 14:07 | 53.15101 | -2.35106 | 27032 ft | 426 kts | 168° |
| 2026-05-05 14:07 | 53.12224 | -2.33979 | 27032 ft | 426 kts | 168° |
| 2026-05-05 14:07 | 53.09335 | -2.32850 | 27031 ft | 426 kts | 168° |
| 2026-05-05 14:08 | 53.06441 | -2.31720 | 27032 ft | 425 kts | 168° |
| 2026-05-05 14:08 | 53.03603 | -2.30325 | 27031 ft | 426 kts | 160° |
| 2026-05-05 14:08 | 53.00925 | -2.28209 | 27031 ft | 427 kts | 150° |
| 2026-05-05 14:08 | 52.98402 | -2.25591 | 27029 ft | 428 kts | 149° |
| 2026-05-05 14:09 | 52.95887 | -2.22945 | 27029 ft | 428 kts | 148° |
| 2026-05-05 14:09 | 52.93379 | -2.20306 | 27028 ft | 428 kts | 149° |
| 2026-05-05 14:09 | 52.90862 | -2.17666 | 27026 ft | 427 kts | 149° |
| 2026-05-05 14:09 | 52.88348 | -2.15034 | 27025 ft | 427 kts | 149° |
| 2026-05-05 14:10 | 52.85835 | -2.12408 | 27024 ft | 427 kts | 149° |
| 2026-05-05 14:10 | 52.83322 | -2.09786 | 27026 ft | 427 kts | 149° |
| 2026-05-05 14:10 | 52.80810 | -2.07174 | 27029 ft | 427 kts | 149° |
| 2026-05-05 14:10 | 52.78297 | -2.04566 | 27030 ft | 426 kts | 149° |
| 2026-05-05 14:11 | 52.75786 | -2.01963 | 27029 ft | 426 kts | 149° |
| 2026-05-05 14:11 | 52.73273 | -1.99359 | 27030 ft | 426 kts | 149° |
| 2026-05-05 14:11 | 52.70769 | -1.96769 | 27031 ft | 426 kts | 149° |
| 2026-05-05 14:11 | 52.68260 | -1.94177 | 27030 ft | 425 kts | 149° |
| 2026-05-05 14:12 | 52.65758 | -1.91594 | 27028 ft | 425 kts | 149° |
| 2026-05-05 14:12 | 52.63253 | -1.89011 | 27025 ft | 424 kts | 149° |
| 2026-05-05 14:12 | 52.60748 | -1.86429 | 27023 ft | 424 kts | 149° |
| 2026-05-05 14:12 | 52.58250 | -1.83855 | 27019 ft | 424 kts | 149° |
| 2026-05-05 14:13 | 52.55741 | -1.81278 | 27015 ft | 424 kts | 149° |
| 2026-05-05 14:13 | 52.53244 | -1.78719 | 27009 ft | 424 kts | 149° |
| 2026-05-05 14:13 | 52.50741 | -1.76155 | 26998 ft | 423 kts | 149° |
| 2026-05-05 14:13 | 52.48255 | -1.73612 | 26371 ft | 421 kts | 149° |
| 2026-05-05 14:14 | 52.45763 | -1.71068 | 25525 ft | 424 kts | 149° |
| 2026-05-05 14:14 | 52.43260 | -1.68518 | 24873 ft | 422 kts | 149° |
| 2026-05-05 14:14 | 52.40745 | -1.65956 | 24217 ft | 418 kts | 149° |
| 2026-05-05 14:14 | 52.38286 | -1.63454 | 23575 ft | 415 kts | 149° |
| 2026-05-05 14:15 | 52.35843 | -1.60975 | 22950 ft | 412 kts | 149° |
| 2026-05-05 14:15 | 52.33416 | -1.58516 | 22336 ft | 408 kts | 149° |
| 2026-05-05 14:15 | 52.31014 | -1.56083 | 21728 ft | 405 kts | 149° |
| 2026-05-05 14:15 | 52.28633 | -1.53668 | 21136 ft | 401 kts | 149° |
| 2026-05-05 14:16 | 52.26270 | -1.51278 | 20569 ft | 398 kts | 149° |
| 2026-05-05 14:16 | 52.23923 | -1.48903 | 20002 ft | 395 kts | 149° |
| 2026-05-05 14:16 | 52.21623 | -1.46481 | 19451 ft | 392 kts | 144° |
| 2026-05-05 14:16 | 52.19533 | -1.43663 | 18890 ft | 390 kts | 140° |
| 2026-05-05 14:17 | 52.17479 | -1.40792 | 18315 ft | 387 kts | 140° |
| 2026-05-05 14:17 | 52.15443 | -1.37947 | 17742 ft | 383 kts | 140° |
| 2026-05-05 14:17 | 52.13439 | -1.35146 | 17160 ft | 380 kts | 140° |
| 2026-05-05 14:17 | 52.11433 | -1.32346 | 16667 ft | 379 kts | 140° |
| 2026-05-05 14:18 | 52.09432 | -1.29558 | 16213 ft | 378 kts | 140° |
| 2026-05-05 14:18 | 52.07443 | -1.26794 | 15767 ft | 376 kts | 140° |
| 2026-05-05 14:18 | 52.05469 | -1.24055 | 15329 ft | 369 kts | 140° |
| 2026-05-05 14:18 | 52.03537 | -1.21376 | 15009 ft | 359 kts | 140° |
| 2026-05-05 14:19 | 52.01676 | -1.18795 | 14967 ft | 341 kts | 140° |
| 2026-05-05 14:19 | 51.99926 | -1.16376 | 14957 ft | 324 kts | 140° |
| 2026-05-05 14:19 | 51.98237 | -1.14053 | 14831 ft | 312 kts | 140° |
| 2026-05-05 14:19 | 51.96605 | -1.11810 | 14705 ft | 302 kts | 140° |
| 2026-05-05 14:20 | 51.95034 | -1.09647 | 14583 ft | 293 kts | 140° |
| 2026-05-05 14:20 | 51.93503 | -1.07535 | 14453 ft | 284 kts | 140° |
| 2026-05-05 14:20 | 51.92018 | -1.05483 | 14323 ft | 276 kts | 140° |
| 2026-05-05 14:20 | 51.90569 | -1.03486 | 14101 ft | 273 kts | 140° |
| 2026-05-05 14:21 | 51.89120 | -1.01499 | 13822 ft | 271 kts | 140° |
| 2026-05-05 14:21 | 51.87683 | -0.99528 | 13538 ft | 270 kts | 140° |
| 2026-05-05 14:21 | 51.86259 | -0.97566 | 13251 ft | 269 kts | 138° |
| 2026-05-05 14:21 | 51.85044 | -0.95281 | 12959 ft | 268 kts | 122° |
| 2026-05-05 14:22 | 51.84189 | -0.92618 | 12658 ft | 267 kts | 115° |
| 2026-05-05 14:22 | 51.83189 | -0.90043 | 12003 ft | 279 kts | 135° |
| 2026-05-05 14:22 | 51.81519 | -0.88328 | 11270 ft | 293 kts | 162° |
| 2026-05-05 14:22 | 51.79573 | -0.87502 | 11108 ft | 285 kts | 167° |
| 2026-05-05 14:23 | 51.77666 | -0.86786 | 10815 ft | 279 kts | 168° |
| 2026-05-05 14:23 | 51.75744 | -0.86637 | 10292 ft | 276 kts | 183° |
| 2026-05-05 14:23 | 51.73833 | -0.86860 | 9779 ft | 275 kts | 185° |
| 2026-05-05 14:23 | 51.71932 | -0.87118 | 9273 ft | 273 kts | 185° |
| 2026-05-05 14:24 | 51.70048 | -0.87382 | 8771 ft | 271 kts | 185° |
| 2026-05-05 14:24 | 51.68178 | -0.87649 | 8278 ft | 269 kts | 185° |
| 2026-05-05 14:24 | 51.66313 | -0.87916 | 7783 ft | 267 kts | 185° |
| 2026-05-05 14:24 | 51.64469 | -0.88182 | 7300 ft | 265 kts | 185° |
| 2026-05-05 14:25 | 51.62640 | -0.88446 | 6816 ft | 263 kts | 185° |
| 2026-05-05 14:25 | 51.60821 | -0.88711 | 6340 ft | 262 kts | 185° |
| 2026-05-05 14:25 | 51.59618 | -0.88885 | 6029 ft | 260 kts | 185° |
| 2026-05-05 14:25 | 51.57826 | -0.89146 | 5563 ft | 258 kts | 185° |
| 2026-05-05 14:26 | 51.56045 | -0.89407 | 5100 ft | 255 kts | 185° |
| 2026-05-05 14:26 | 51.54298 | -0.89662 | 4734 ft | 249 kts | 185° |
| 2026-05-05 14:26 | 51.52596 | -0.89899 | 4358 ft | 242 kts | 182° |
| 2026-05-05 14:26 | 51.50985 | -0.89446 | 4049 ft | 232 kts | 157° |
| 2026-05-05 14:27 | 51.49613 | -0.88178 | 3982 ft | 221 kts | 140° |
| 2026-05-05 14:27 | 51.48566 | -0.86399 | 4004 ft | 219 kts | 123° |
| 2026-05-05 14:27 | 51.47876 | -0.84262 | 4018 ft | 217 kts | 107° |
| 2026-05-05 14:27 | 51.47575 | -0.81882 | 3989 ft | 216 kts | 91° |
| 2026-05-05 14:28 | 51.47576 | -0.79467 | 3799 ft | 216 kts | 88° |
| 2026-05-05 14:28 | 51.47596 | -0.77064 | 3533 ft | 215 kts | 88° |
| 2026-05-05 14:28 | 51.47613 | -0.74714 | 3261 ft | 213 kts | 88° |
| 2026-05-05 14:28 | 51.47628 | -0.72301 | 2971 ft | 211 kts | 87° |
| 2026-05-05 14:29 | 51.47642 | -0.69967 | 2694 ft | 207 kts | 88° |
| 2026-05-05 14:29 | 51.47655 | -0.67676 | 2423 ft | 203 kts | 88° |
| 2026-05-05 14:29 | 51.47667 | -0.65438 | 2173 ft | 197 kts | 88° |
| 2026-05-05 14:29 | 51.47679 | -0.63269 | 1899 ft | 192 kts | 88° |
| 2026-05-05 14:30 | 51.47689 | -0.61202 | 1646 ft | 180 kts | 88° |
| 2026-05-05 14:30 | 51.47699 | -0.59262 | 1419 ft | 169 kts | 88° |
| 2026-05-05 14:30 | 51.47708 | -0.57423 | 1198 ft | 159 kts | 88° |
| 2026-05-05 14:30 | 51.47716 | -0.55727 | 995 ft | 148 kts | 88° |
| 2026-05-05 14:31 | 51.47725 | -0.54116 | 775 ft | 142 kts | 88° |
| 2026-05-05 14:31 | 51.47736 | -0.52545 | 623 ft | 140 kts | 88° |
| 2026-05-05 14:31 | 51.47745 | -0.50992 | 438 ft | 139 kts | 88° |
| 2026-05-05 14:31 | 51.47753 | -0.49476 | 269 ft | 138 kts | 88° |
| 2026-05-05 14:32 | 51.47752 | -0.47936 | 99 ft | 134 kts | 88° |
| 2026-05-05 14:32 | 51.47756 | -0.46602 | 92 ft | 99 kts | 90° |
| 2026-05-05 14:32 | 51.47761 | -0.45770 | 86 ft | 50 kts | 90° |
| 2026-05-05 14:32 | 51.47722 | -0.45480 | 85 ft | 20 kts | 153° |
| 2026-05-05 14:33 | 51.47608 | -0.45479 | 86 ft | 13 kts | 212° |
| 2026-05-05 14:33 | 51.47596 | -0.45628 | 86 ft | 15 kts | 269° |
| 2026-05-05 14:33 | 51.47595 | -0.45809 | 88 ft | 18 kts | 269° |
| 2026-05-05 14:33 | 51.47593 | -0.46019 | 86 ft | 20 kts | 270° |
| 2026-05-05 14:34 | 51.47593 | -0.46256 | 88 ft | 22 kts | 270° |
| 2026-05-05 14:34 | 51.47592 | -0.46521 | 86 ft | 25 kts | 270° |
| 2026-05-05 14:34 | 51.47590 | -0.46800 | 86 ft | 23 kts | 267° |
| 2026-05-05 14:34 | 51.47582 | -0.47055 | 89 ft | 22 kts | 269° |
| 2026-05-05 14:35 | 51.47582 | -0.47297 | 86 ft | 21 kts | 269° |
| 2026-05-05 14:35 | 51.47582 | -0.47528 | 86 ft | 21 kts | 269° |
| 2026-05-05 14:35 | 51.47580 | -0.47760 | 86 ft | 20 kts | 269° |
| 2026-05-05 14:35 | 51.47579 | -0.47983 | 90 ft | 20 kts | 271° |
| 2026-05-05 14:36 | 51.47579 | -0.48201 | 88 ft | 19 kts | 269° |
| 2026-05-05 14:36 | 51.47577 | -0.48394 | 86 ft | 12 kts | 269° |
| 2026-05-05 14:36 | 51.47545 | -0.48476 | 86 ft | 9 kts | 183° |
| 2026-05-05 14:36 | 51.47492 | -0.48499 | 88 ft | 8 kts | 235° |
| 2026-05-05 14:37 | 51.47487 | -0.48586 | 89 ft | 8 kts | 270° |
| 2026-05-05 14:37 | 51.47487 | -0.48668 | 89 ft | 7 kts | 271° |
| 2026-05-05 14:37 | 51.47487 | -0.48744 | 89 ft | 7 kts | 269° |
| 2026-05-05 14:37 | 51.47487 | -0.48826 | 88 ft | 7 kts | 270° |
| 2026-05-05 14:38 | 51.47475 | -0.48887 | 90 ft | 4 kts | 204° |
| 2026-05-05 14:38 | 51.47447 | -0.48891 | 88 ft | 4 kts | 180° |
| 2026-05-05 14:38 | 51.47421 | -0.48891 | 86 ft | 3 kts | 181° |
| 2026-05-05 14:38 | 51.47406 | -0.48891 | 86 ft | 1 kts | 180° |
| 2026-05-05 14:39 | 51.47403 | -0.48891 | 89 ft | 0 kts | 180° |